createdAt,value
2018-08-28T00:01:32.294Z,2.60
2018-08-28T00:04:00.752Z,3.27
2018-08-28T00:06:29.192Z,2.50
2018-08-28T00:08:57.621Z,2.77
2018-08-28T00:11:26.062Z,2.50
2018-08-28T00:13:54.501Z,2.53
2018-08-28T00:16:22.963Z,2.60
2018-08-28T00:18:51.444Z,1.83
2018-08-28T00:21:19.891Z,2.30
2018-08-28T00:23:48.323Z,2.63
2018-08-28T00:26:16.755Z,2.60
2018-08-28T00:28:45.207Z,2.83
2018-08-28T00:31:13.652Z,2.50
2018-08-28T00:33:42.072Z,2.43
2018-08-28T00:36:10.531Z,2.13
2018-08-28T00:38:38.964Z,2.60
2018-08-28T00:41:07.704Z,1.83
2018-08-28T00:43:36.164Z,2.50
2018-08-28T00:46:04.600Z,2.67
2018-08-28T00:48:33.015Z,2.57
2018-08-28T00:51:01.441Z,3.40
2018-08-28T00:53:29.872Z,2.90
2018-08-28T00:55:58.295Z,2.43
2018-08-28T00:58:26.736Z,2.60
2018-08-28T01:00:55.142Z,2.57
2018-08-28T01:03:23.572Z,2.90
2018-08-28T01:05:51.976Z,2.87
2018-08-28T01:08:20.397Z,3.40
2018-08-28T01:10:48.816Z,2.40
2018-08-28T01:13:17.236Z,3.73
2018-08-28T01:15:45.690Z,4.07
2018-08-28T01:18:14.128Z,3.47
2018-08-28T01:20:42.527Z,3.53
2018-08-28T01:23:10.969Z,3.00
2018-08-28T01:25:39.407Z,2.73
2018-08-28T01:28:07.836Z,3.13
2018-08-28T01:30:36.244Z,3.70
2018-08-28T01:33:05.836Z,3.17
2018-08-28T01:35:34.722Z,2.60
2018-08-28T01:38:03.207Z,2.73
2018-08-28T01:40:31.732Z,2.77
2018-08-28T01:43:00.601Z,4.13
2018-08-28T01:45:29.080Z,2.90
2018-08-28T01:47:57.501Z,4.10
2018-08-28T01:50:25.980Z,3.40
2018-08-28T01:52:54.702Z,3.30
2018-08-28T01:55:23.229Z,3.30
2018-08-28T01:57:51.644Z,3.90
2018-08-28T02:00:20.112Z,4.00
2018-08-28T02:02:48.574Z,3.40
2018-08-28T02:05:17.047Z,3.50
2018-08-28T02:07:45.460Z,3.43
2018-08-28T02:10:13.911Z,3.30
2018-08-28T02:12:42.364Z,2.77
2018-08-28T02:15:10.820Z,2.80
2018-08-28T02:17:39.727Z,3.57
2018-08-28T02:20:08.429Z,3.83
2018-08-28T02:22:36.892Z,3.73
2018-08-28T02:25:06.102Z,3.73
2018-08-28T02:27:34.540Z,3.57
2018-08-28T02:30:03.009Z,3.07
2018-08-28T02:32:31.476Z,3.10
2018-08-28T02:34:59.928Z,3.20
2018-08-28T02:37:28.416Z,4.00
2018-08-28T02:39:56.991Z,3.43
2018-08-28T02:42:25.424Z,3.23
2018-08-28T02:44:53.885Z,3.00
2018-08-28T02:47:22.342Z,2.83
2018-08-28T02:49:50.775Z,2.87
2018-08-28T02:52:19.205Z,2.47
2018-08-28T02:54:47.653Z,3.00
2018-08-28T02:57:16.107Z,2.33
2018-08-28T02:59:44.528Z,2.60
2018-08-28T03:02:12.958Z,2.50
2018-08-28T03:04:41.379Z,2.53
2018-08-28T03:07:09.818Z,2.43
2018-08-28T03:09:38.299Z,2.23
2018-08-28T03:12:06.782Z,2.80
2018-08-28T03:14:35.219Z,2.70
2018-08-28T03:17:03.692Z,3.07
2018-08-28T03:19:32.330Z,2.50
2018-08-28T03:22:00.820Z,2.70
2018-08-28T03:24:29.293Z,3.07
2018-08-28T03:26:57.707Z,3.00
2018-08-28T03:29:26.164Z,3.07
2018-08-28T03:31:54.605Z,2.73
2018-08-28T03:34:23.112Z,4.17
2018-08-28T03:36:51.549Z,3.67
2018-08-28T03:39:20.036Z,2.83
2018-08-28T03:41:48.476Z,2.70
2018-08-28T03:44:16.965Z,2.67
2018-08-28T03:46:45.382Z,4.20
2018-08-28T03:49:13.913Z,3.80
2018-08-28T03:51:42.354Z,3.53
2018-08-28T03:54:10.859Z,3.23
2018-08-28T03:56:39.268Z,4.00
2018-08-28T03:59:07.725Z,3.40
2018-08-28T04:01:36.138Z,3.73
2018-08-28T04:04:04.608Z,3.60
2018-08-28T04:06:33.056Z,3.43
2018-08-28T04:09:01.505Z,2.80
2018-08-28T04:11:29.926Z,2.70
2018-08-28T04:13:58.348Z,4.70
2018-08-28T04:16:26.772Z,3.50
2018-08-28T04:18:55.221Z,3.27
2018-08-28T04:21:23.701Z,4.00
2018-08-28T04:23:52.118Z,3.50
2018-08-28T04:26:20.577Z,4.30
2018-08-28T04:28:48.977Z,3.17
2018-08-28T04:31:17.433Z,3.10
2018-08-28T04:33:45.850Z,3.73
2018-08-28T04:36:14.304Z,4.63
2018-08-28T04:38:42.712Z,4.00
2018-08-28T04:41:11.510Z,3.90
2018-08-28T04:43:39.953Z,3.30
2018-08-28T04:46:08.783Z,3.30
2018-08-28T04:48:37.193Z,3.83
2018-08-28T04:51:05.818Z,3.30
2018-08-28T04:53:34.268Z,4.20
2018-08-28T04:56:02.771Z,3.57
2018-08-28T04:58:32.425Z,3.20
2018-08-28T05:01:00.868Z,2.60
2018-08-28T05:03:29.335Z,2.60
2018-08-28T05:05:57.765Z,3.37
2018-08-28T05:08:26.214Z,1.97
2018-08-28T05:10:54.627Z,2.40
2018-08-28T05:13:23.172Z,2.83
2018-08-28T05:15:51.647Z,2.63
2018-08-28T05:18:20.090Z,2.37
2018-08-28T05:20:48.550Z,3.20
2018-08-28T05:23:17.023Z,2.73
2018-08-28T05:25:45.447Z,2.90
2018-08-28T05:28:13.941Z,3.00
2018-08-28T05:30:42.409Z,2.87
2018-08-28T05:33:10.852Z,2.87
2018-08-28T05:35:39.292Z,2.30
2018-08-28T05:38:07.834Z,2.40
2018-08-28T05:40:36.309Z,3.40
2018-08-28T05:43:04.776Z,2.33
2018-08-28T05:45:33.208Z,2.73
2018-08-28T05:48:01.669Z,2.97
2018-08-28T05:50:30.110Z,2.40
2018-08-28T05:52:58.532Z,2.80
2018-08-28T05:55:27.002Z,2.73
2018-08-28T05:57:55.428Z,3.37
2018-08-28T06:00:23.867Z,3.17
2018-08-28T06:02:52.378Z,3.07
2018-08-28T06:05:20.785Z,3.27
2018-08-28T06:07:49.196Z,3.63
2018-08-28T06:10:17.637Z,3.37
2018-08-28T06:12:46.056Z,3.17
2018-08-28T06:15:14.512Z,3.70
2018-08-28T06:17:42.935Z,3.50
2018-08-28T06:20:11.399Z,3.90
2018-08-28T06:22:39.819Z,4.20
2018-08-28T06:25:08.277Z,4.80
2018-08-28T06:27:36.741Z,4.00
2018-08-28T06:30:05.265Z,4.73
2018-08-28T06:32:33.709Z,4.50
2018-08-28T06:35:02.140Z,4.07
2018-08-28T06:37:30.560Z,4.27
2018-08-28T06:39:59.020Z,4.10
2018-08-28T06:42:27.441Z,3.80
2018-08-28T06:44:55.885Z,4.90
2018-08-28T06:47:24.304Z,4.67
2018-08-28T06:49:52.776Z,3.90
2018-08-28T06:52:21.191Z,4.90
2018-08-28T06:54:49.701Z,4.30
2018-08-28T06:57:18.152Z,4.13
2018-08-28T06:59:46.628Z,4.73
2018-08-28T07:02:15.081Z,5.43
2018-08-28T07:04:43.872Z,5.00
2018-08-28T07:07:12.310Z,5.20
2018-08-28T07:09:40.778Z,5.70
2018-08-28T07:12:09.226Z,11.03
2018-08-28T07:14:37.725Z,10.13
2018-08-28T07:17:06.181Z,9.20
2018-08-28T07:19:34.653Z,5.30
2018-08-28T07:22:03.193Z,5.97
2018-08-28T07:24:31.620Z,5.70
2018-08-28T07:27:00.054Z,4.63
2018-08-28T07:29:28.523Z,5.20
2018-08-28T07:31:56.991Z,4.33
2018-08-28T07:34:25.380Z,4.83
2018-08-28T07:36:53.813Z,5.90
2018-08-28T07:39:22.249Z,6.70
2018-08-28T07:41:50.689Z,6.60
2018-08-28T07:44:19.143Z,5.50
2018-08-28T07:46:47.577Z,7.40
2018-08-28T07:49:16.014Z,7.03
2018-08-28T07:51:44.447Z,6.20
2018-08-28T07:54:12.894Z,7.03
2018-08-28T07:56:41.350Z,6.43
2018-08-28T07:59:10.258Z,6.13
2018-08-28T08:01:38.812Z,6.80
2018-08-28T08:04:07.312Z,6.37
2018-08-28T08:06:36.040Z,5.13
2018-08-28T08:09:06.546Z,5.77
2018-08-28T08:11:34.977Z,5.60
2018-08-28T08:14:03.431Z,5.87
2018-08-28T08:16:31.854Z,5.50
2018-08-28T08:19:00.304Z,5.53
2018-08-28T08:21:28.736Z,5.70
2018-08-28T08:23:57.181Z,6.30
2018-08-28T08:26:25.596Z,5.77
2018-08-28T08:28:54.031Z,5.47
2018-08-28T08:31:22.449Z,5.23
2018-08-28T08:33:50.927Z,4.73
2018-08-28T08:36:19.448Z,5.30
2018-08-28T08:38:47.876Z,4.93
2018-08-28T08:41:16.301Z,5.20
2018-08-28T08:43:44.739Z,5.50
2018-08-28T08:46:13.186Z,4.80
2018-08-28T08:48:41.619Z,4.67
2018-08-28T08:51:10.094Z,4.90
2018-08-28T08:53:38.605Z,4.27
2018-08-28T08:56:07.036Z,5.20
2018-08-28T08:58:35.477Z,4.90
2018-08-28T09:01:03.929Z,4.90
2018-08-28T09:03:32.380Z,5.70
2018-08-28T09:06:00.929Z,5.93
2018-08-28T09:08:29.365Z,5.20
2018-08-28T09:10:57.834Z,6.17
2018-08-28T09:13:26.332Z,5.67
2018-08-28T09:15:54.765Z,5.17
2018-08-28T09:18:23.231Z,6.10
2018-08-28T09:20:51.684Z,6.33
2018-08-28T09:23:20.098Z,6.57
2018-08-28T09:25:48.572Z,5.87
2018-08-28T09:28:17.016Z,5.77
2018-08-28T09:30:45.486Z,6.30
2018-08-28T09:33:13.937Z,4.63
2018-08-28T09:35:42.403Z,4.63
2018-08-28T09:38:10.872Z,5.40
2018-08-28T09:40:39.429Z,5.63
2018-08-28T09:43:07.879Z,5.10
2018-08-28T09:45:36.328Z,5.40
2018-08-28T09:48:05.032Z,5.17
2018-08-28T09:50:33.530Z,5.00
2018-08-28T09:53:01.964Z,5.20
2018-08-28T09:55:30.462Z,4.80
2018-08-28T09:57:58.936Z,4.70
2018-08-28T10:00:27.868Z,5.33
2018-08-28T10:02:57.317Z,5.03
2018-08-28T10:05:25.868Z,4.70
2018-08-28T10:07:54.452Z,5.23
2018-08-28T10:10:22.852Z,5.27
2018-08-28T10:12:51.326Z,5.07
2018-08-28T10:15:19.799Z,5.97
2018-08-28T10:17:48.363Z,5.30
2018-08-28T10:20:16.834Z,5.30
2018-08-28T10:22:45.370Z,5.47
2018-08-28T10:25:13.788Z,5.83
2018-08-28T10:27:42.332Z,5.60
2018-08-28T10:30:10.809Z,5.00
2018-08-28T10:32:39.297Z,4.90
2018-08-28T10:35:07.808Z,6.00
2018-08-28T10:37:36.293Z,4.43
2018-08-28T10:40:04.817Z,5.80
2018-08-28T10:42:33.304Z,5.83
2018-08-28T10:45:01.770Z,5.40
2018-08-28T10:47:30.326Z,4.90
2018-08-28T10:49:58.800Z,5.07
2018-08-28T10:52:27.311Z,5.50
2018-08-28T10:54:55.777Z,5.60
2018-08-28T10:57:24.224Z,5.77
2018-08-28T10:59:52.668Z,6.00
2018-08-28T11:02:21.154Z,6.13
2018-08-28T11:04:49.687Z,5.30
2018-08-28T11:07:18.144Z,4.73
2018-08-28T11:09:46.623Z,5.40
2018-08-28T11:12:15.101Z,5.53
2018-08-28T11:14:43.577Z,5.03
2018-08-28T11:17:12.030Z,5.20
2018-08-28T11:19:40.573Z,6.03
2018-08-28T11:22:09.087Z,5.20
2018-08-28T11:24:37.551Z,5.37
2018-08-28T11:27:06.015Z,5.30
2018-08-28T11:29:34.476Z,5.60
2018-08-28T11:32:03.146Z,4.90
2018-08-28T11:34:31.635Z,5.60
2018-08-28T11:37:00.102Z,5.73
2018-08-28T11:39:28.585Z,5.33
2018-08-28T11:41:57.051Z,5.10
2018-08-28T11:44:25.514Z,4.67
2018-08-28T11:46:54.001Z,5.43
2018-08-28T11:49:22.460Z,4.37
2018-08-28T11:51:50.924Z,6.03
2018-08-28T11:54:19.384Z,4.97
2018-08-28T11:56:47.840Z,5.47
2018-08-28T11:59:16.325Z,4.93
2018-08-28T12:01:44.792Z,5.00
2018-08-28T12:04:13.247Z,5.60
2018-08-28T12:06:41.743Z,6.47
2018-08-28T12:09:10.877Z,5.23
2018-08-28T12:11:39.356Z,4.87
2018-08-28T12:14:07.821Z,5.90
2018-08-28T12:16:36.324Z,5.33
2018-08-28T12:19:05.085Z,5.40
2018-08-28T12:21:33.536Z,5.20
2018-08-28T12:24:02.009Z,5.57
2018-08-28T12:26:30.543Z,5.07
2018-08-28T12:28:58.959Z,5.20
2018-08-28T12:31:27.416Z,4.40
2018-08-28T12:33:55.865Z,5.57
2018-08-28T12:36:24.318Z,4.80
2018-08-28T12:38:52.809Z,4.63
2018-08-28T12:41:21.269Z,5.20
2018-08-28T12:43:49.748Z,4.80
2018-08-28T12:46:18.208Z,5.50
2018-08-28T12:48:46.670Z,4.90
2018-08-28T12:51:15.173Z,5.50
2018-08-28T12:53:43.661Z,5.20
2018-08-28T12:56:12.155Z,5.07
2018-08-28T12:58:40.642Z,5.40
2018-08-28T13:01:09.160Z,5.07
2018-08-28T13:03:37.651Z,5.20
2018-08-28T13:06:06.206Z,6.00
2018-08-28T13:08:34.735Z,5.47
2018-08-28T13:11:03.214Z,5.33
2018-08-28T13:13:31.698Z,4.97
2018-08-28T13:16:00.248Z,5.80
2018-08-28T13:18:28.631Z,5.80
2018-08-28T13:20:57.100Z,5.10
2018-08-28T13:23:25.566Z,5.47
2018-08-28T13:25:54.040Z,5.87
2018-08-28T13:28:22.545Z,5.63
2018-08-28T13:30:51.016Z,6.07
2018-08-28T13:33:19.500Z,5.63
2018-08-28T13:35:47.942Z,5.97
2018-08-28T13:38:16.450Z,5.67
2018-08-28T13:40:45.113Z,5.80
2018-08-28T13:43:13.413Z,5.17
2018-08-28T13:45:41.879Z,5.60
2018-08-28T13:48:10.364Z,6.70
2018-08-28T13:50:38.904Z,5.30
2018-08-28T13:53:07.381Z,6.60
2018-08-28T13:55:35.844Z,4.57
2018-08-28T13:58:04.289Z,5.67
2018-08-28T14:00:32.756Z,6.17
2018-08-28T14:03:01.211Z,5.80
2018-08-28T14:05:29.690Z,5.67
2018-08-28T14:07:58.121Z,6.37
2018-08-28T14:10:26.570Z,5.00
2018-08-28T14:12:55.019Z,4.77
2018-08-28T14:15:23.476Z,4.97
2018-08-28T14:17:51.922Z,5.13
2018-08-28T14:20:20.367Z,5.83
2018-08-28T14:22:48.805Z,5.10
2018-08-28T14:25:17.380Z,5.47
2018-08-28T14:27:45.867Z,5.20
2018-08-28T14:30:14.362Z,5.43
2018-08-28T14:32:42.852Z,5.57
2018-08-28T14:35:11.328Z,4.90
2018-08-28T14:37:39.758Z,4.67
2018-08-28T14:40:08.258Z,5.53
2018-08-28T14:42:36.906Z,5.57
2018-08-28T14:45:05.321Z,6.00
2018-08-28T14:47:33.762Z,5.37
2018-08-28T14:50:02.332Z,6.20
2018-08-28T14:52:30.722Z,5.70
2018-08-28T14:54:59.199Z,5.03
2018-08-28T14:57:27.684Z,5.57
2018-08-28T14:59:56.157Z,5.47
2018-08-28T15:02:24.632Z,4.33
2018-08-28T15:04:53.130Z,4.50
2018-08-28T15:07:21.613Z,5.23
2018-08-28T15:09:50.085Z,5.60
2018-08-28T15:12:18.556Z,5.40
2018-08-28T15:14:47.021Z,4.97
2018-08-28T15:17:15.517Z,5.40
2018-08-28T15:19:43.953Z,6.27
2018-08-28T15:22:12.516Z,5.17
2018-08-28T15:24:40.956Z,5.53
2018-08-28T15:27:09.574Z,5.40
2018-08-28T15:29:37.965Z,6.10
2018-08-28T15:32:06.453Z,5.03
2018-08-28T15:34:34.904Z,5.40
2018-08-28T15:37:03.400Z,5.13
2018-08-28T15:39:31.852Z,4.53
2018-08-28T15:42:00.326Z,5.93
2018-08-28T15:44:28.806Z,4.63
2018-08-28T15:46:57.250Z,4.70
2018-08-28T15:49:25.719Z,4.97
2018-08-28T15:51:54.254Z,5.67
2018-08-28T15:54:23.524Z,5.07
2018-08-28T15:56:51.955Z,6.10
2018-08-28T15:59:20.400Z,6.30
2018-08-28T16:01:48.829Z,6.57
2018-08-28T16:04:19.670Z,5.30
2018-08-28T16:06:49.162Z,5.93
2018-08-28T16:09:17.604Z,5.53
2018-08-28T16:11:46.324Z,5.87
2018-08-28T16:14:15.140Z,6.00
2018-08-28T16:16:44.317Z,6.00
2018-08-28T16:19:12.785Z,5.60
2018-08-28T16:21:46.592Z,6.10
2018-08-28T16:24:15.063Z,5.60
2018-08-28T16:26:43.505Z,5.37
2018-08-28T16:29:12.188Z,5.50
2018-08-28T16:31:40.655Z,6.40
2018-08-28T16:34:10.027Z,5.80
2018-08-28T16:36:38.736Z,6.00
2018-08-28T16:39:08.655Z,5.43
2018-08-28T16:41:37.398Z,5.63
2018-08-28T16:44:05.924Z,6.00
2018-08-28T16:46:34.722Z,5.43
2018-08-28T16:49:03.171Z,5.70
2018-08-28T16:51:31.616Z,5.67
2018-08-28T16:54:00.111Z,6.20
2018-08-28T16:56:28.580Z,5.43
2018-08-28T16:58:57.046Z,6.40
2018-08-28T17:01:25.606Z,6.50
2018-08-28T17:03:54.000Z,5.10
2018-08-28T17:06:22.476Z,6.03
2018-08-28T17:08:50.947Z,4.80
2018-08-28T17:11:19.420Z,6.30
2018-08-28T17:13:47.903Z,5.13
2018-08-28T17:16:16.351Z,5.33
2018-08-28T17:18:44.816Z,6.10
2018-08-28T17:21:13.279Z,5.90
2018-08-28T17:23:41.713Z,5.60
2018-08-28T17:26:10.176Z,5.40
2018-08-28T17:28:38.635Z,4.73
2018-08-28T17:31:07.138Z,6.63
2018-08-28T17:33:35.562Z,6.53
2018-08-28T17:36:04.024Z,5.70
2018-08-28T17:38:32.529Z,5.40
2018-08-28T17:41:01.029Z,5.40
2018-08-28T17:43:29.547Z,5.00
2018-08-28T17:45:57.980Z,5.07
2018-08-28T17:48:26.456Z,6.20
2018-08-28T17:50:54.917Z,6.57
2018-08-28T17:53:23.386Z,5.03
2018-08-28T17:55:51.849Z,5.30
2018-08-28T17:58:20.336Z,5.87
2018-08-28T18:00:48.817Z,6.30
2018-08-28T18:03:17.290Z,6.30
2018-08-28T18:05:45.742Z,5.90
2018-08-28T18:08:14.197Z,6.50
2018-08-28T18:10:42.676Z,5.90
2018-08-28T18:13:11.143Z,5.50
2018-08-28T18:15:39.612Z,6.00
2018-08-28T18:18:08.092Z,6.03
2018-08-28T18:20:36.536Z,5.70
2018-08-28T18:23:05.276Z,6.10
2018-08-28T18:25:33.754Z,5.37
2018-08-28T18:28:02.216Z,6.20
2018-08-28T18:30:30.684Z,5.50
2018-08-28T18:32:59.122Z,5.87
2018-08-28T18:35:27.588Z,4.93
2018-08-28T18:37:56.040Z,6.10
2018-08-28T18:40:24.508Z,5.33
2018-08-28T18:42:52.960Z,6.60
2018-08-28T18:45:21.438Z,5.67
2018-08-28T18:47:49.872Z,5.97
2018-08-28T18:50:18.323Z,6.90
2018-08-28T18:52:46.760Z,6.20
2018-08-28T18:55:15.252Z,5.50
2018-08-28T18:57:43.679Z,6.23
2018-08-28T19:00:12.125Z,6.53
2018-08-28T19:02:40.674Z,5.53
2018-08-28T19:05:09.108Z,6.40
2018-08-28T19:07:37.625Z,5.30
2018-08-28T19:10:06.054Z,5.73
2018-08-28T19:12:34.520Z,6.33
2018-08-28T19:15:02.997Z,6.57
2018-08-28T19:17:31.474Z,6.83
2018-08-28T19:19:59.977Z,6.37
2018-08-28T19:22:28.443Z,6.50
2018-08-28T19:24:56.901Z,6.13
2018-08-28T19:27:25.375Z,6.30
2018-08-28T19:29:53.805Z,5.80
2018-08-28T19:32:22.283Z,6.30
2018-08-28T19:34:50.759Z,6.90
2018-08-28T19:37:19.214Z,7.17
2018-08-28T19:39:47.671Z,6.43
2018-08-28T19:42:16.169Z,6.20
2018-08-28T19:44:44.636Z,6.50
2018-08-28T19:47:13.109Z,6.07
2018-08-28T19:49:41.576Z,6.27
2018-08-28T19:52:10.041Z,5.87
2018-08-28T19:54:38.531Z,6.60
2018-08-28T19:57:06.994Z,5.70
2018-08-28T19:59:35.424Z,6.50
2018-08-28T20:02:03.861Z,7.00
2018-08-28T20:04:32.291Z,6.17
2018-08-28T20:07:00.703Z,6.67
2018-08-28T20:09:29.148Z,6.30
2018-08-28T20:11:57.584Z,6.90
2018-08-28T20:14:26.129Z,6.10
2018-08-28T20:16:54.565Z,6.43
2018-08-28T20:19:23.017Z,6.03
2018-08-28T20:21:51.489Z,7.73
2018-08-28T20:24:19.926Z,6.00
2018-08-28T20:26:48.401Z,6.47
2018-08-28T20:29:16.883Z,6.77
2018-08-28T20:31:45.338Z,6.70
2018-08-28T20:34:13.793Z,6.00
2018-08-28T20:36:42.209Z,6.23
2018-08-28T20:39:10.670Z,6.40
2018-08-28T20:41:39.164Z,7.03
2018-08-28T20:44:07.590Z,5.57
2018-08-28T20:46:36.094Z,5.87
2018-08-28T20:49:04.555Z,5.87
2018-08-28T20:51:33.001Z,6.57
2018-08-28T20:54:01.459Z,6.50
2018-08-28T20:56:29.895Z,6.87
2018-08-28T20:58:58.321Z,7.70
2018-08-28T21:01:26.800Z,7.07
2018-08-28T21:03:55.216Z,6.57
2018-08-28T21:06:23.758Z,7.80
2018-08-28T21:08:52.185Z,6.33
2018-08-28T21:11:20.640Z,6.90
2018-08-28T21:13:49.182Z,7.70
2018-08-28T21:16:17.697Z,7.27
2018-08-28T21:18:46.144Z,7.63
2018-08-28T21:21:14.598Z,6.90
2018-08-28T21:23:43.022Z,7.93
2018-08-28T21:26:11.492Z,6.83
2018-08-28T21:28:40.137Z,6.73
2018-08-28T21:31:08.600Z,7.37
2018-08-28T21:33:37.020Z,6.77
2018-08-28T21:36:05.512Z,6.77
2018-08-28T21:38:33.933Z,6.80
2018-08-28T21:41:02.379Z,7.43
2018-08-28T21:43:30.801Z,7.23
2018-08-28T21:45:59.245Z,6.47
2018-08-28T21:48:27.670Z,6.60
2018-08-28T21:50:56.182Z,6.93
2018-08-28T21:53:24.609Z,7.47
2018-08-28T21:55:53.081Z,6.50
2018-08-28T21:58:21.527Z,6.50
2018-08-28T22:00:55.326Z,8.07
2018-08-28T22:03:23.779Z,7.77
2018-08-28T22:05:52.219Z,7.30
2018-08-28T22:08:20.705Z,6.70
2018-08-28T22:10:49.224Z,7.43
2018-08-28T22:13:17.696Z,6.07
2018-08-28T22:15:46.170Z,6.40
2018-08-28T22:18:14.659Z,8.73
2018-08-28T22:20:57.580Z,6.53
2018-08-28T22:23:26.439Z,7.00
2018-08-28T22:25:54.844Z,6.83
2018-08-28T22:28:23.255Z,8.50
2018-08-28T22:30:51.742Z,7.10
2018-08-28T22:33:20.155Z,7.70
2018-08-28T22:35:48.550Z,7.80
2018-08-28T22:38:16.988Z,6.70
2018-08-28T22:40:45.406Z,6.93
2018-08-28T22:43:18.049Z,7.27
2018-08-28T22:45:46.470Z,8.43
2018-08-28T22:48:14.937Z,7.13
2018-08-28T22:50:43.321Z,7.17
2018-08-28T22:53:11.700Z,8.67
2018-08-28T22:55:40.144Z,7.87
2018-08-28T22:58:08.567Z,8.30
2018-08-28T23:00:37.017Z,7.77
2018-08-28T23:03:05.540Z,7.53
2018-08-28T23:05:34.025Z,7.40
2018-08-28T23:08:02.475Z,6.83
2018-08-28T23:10:30.921Z,7.27
2018-08-28T23:12:59.334Z,8.27
2018-08-28T23:15:27.763Z,7.63
2018-08-28T23:17:56.193Z,8.17
2018-08-28T23:20:24.656Z,7.50
2018-08-28T23:22:53.067Z,7.73
2018-08-28T23:25:21.528Z,7.60
2018-08-28T23:27:49.924Z,7.40
2018-08-28T23:30:18.336Z,8.17
2018-08-28T23:32:46.750Z,8.00
2018-08-28T23:35:15.209Z,7.57
2018-08-28T23:37:43.689Z,7.40
2018-08-28T23:40:12.170Z,7.43
2018-08-28T23:42:40.568Z,8.43
2018-08-28T23:45:08.985Z,6.97
2018-08-28T23:47:37.416Z,7.67
2018-08-28T23:50:06.054Z,7.60
2018-08-28T23:52:34.468Z,8.33
2018-08-28T23:55:02.930Z,8.27
2018-08-28T23:57:31.407Z,6.93
2018-08-28T23:59:59.852Z,7.00
